Time;durP1;ratioP1;P1;durP2;ratioP2;P2;SDS_P1;SDS_P2;PMS_P1;PMS_P2;Temp;Humidity;BMP_temperature;BMP_pressure;BME280_temperature;BME280_humidity;BME280_pressure;Samples;Min_cycle;Max_cycle;Signal;HPM_P1;HPM_P2
2022/10/14 00:00:18;;;;;;;81.95;32.92;;;11.90;99.90;;;;;;5049140;28;20041;-63
2022/10/14 00:02:43;;;;;;;85.63;32.40;;;11.90;99.90;;;;;;5047537;28;20052;-63
2022/10/14 00:05:09;;;;;;;101.85;34.95;;;11.90;99.90;;;;;;5050350;28;20076;-62
2022/10/14 00:07:36;;;;;;;90.70;33.53;;;11.90;99.90;;;;;;5048634;28;20040;-62
2022/10/14 00:10:04;;;;;;;72.15;32.33;;;11.80;99.90;;;;;;5051371;28;20049;-63
2022/10/14 00:12:29;;;;;;;81.10;33.40;;;11.80;99.90;;;;;;5043398;28;20052;-63
2022/10/14 00:14:55;;;;;;;100.28;34.88;;;11.80;99.90;;;;;;5055545;28;20433;-63
2022/10/14 00:17:21;;;;;;;85.22;31.80;;;11.80;99.90;;;;;;5054101;28;20049;-63
2022/10/14 00:19:47;;;;;;;92.22;33.17;;;11.80;99.90;;;;;;5053889;28;20060;-63
2022/10/14 00:22:13;;;;;;;99.78;33.35;;;11.80;99.90;;;;;;5065361;28;20483;-63
2022/10/14 00:24:39;;;;;;;76.20;30.02;;;11.80;99.90;;;;;;5057962;28;20124;-62
2022/10/14 00:27:04;;;;;;;81.60;30.33;;;11.80;99.90;;;;;;5047026;28;20033;-62
2022/10/14 00:29:30;;;;;;;91.65;33.40;;;11.70;99.90;;;;;;5048490;28;20098;-63
2022/10/14 00:31:55;;;;;;;77.38;30.63;;;11.70;99.90;;;;;;5048381;28;20037;-62
2022/10/14 00:34:21;;;;;;;82.95;30.58;;;11.70;99.90;;;;;;5052210;28;20044;-62
2022/10/14 00:36:47;;;;;;;76.93;30.10;;;11.60;99.90;;;;;;5057874;28;20037;-63
2022/10/14 00:39:12;;;;;;;75.13;28.40;;;11.60;99.90;;;;;;5060857;28;20103;-62
2022/10/14 00:41:38;;;;;;;77.97;30.55;;;11.60;99.90;;;;;;5046471;28;20322;-63
2022/10/14 00:44:27;;;;;;;73.35;29.33;;;11.60;99.90;;;;;;5056238;28;20040;-63
2022/10/14 00:46:53;;;;;;;81.00;30.35;;;11.60;99.90;;;;;;5055740;28;20036;-62
2022/10/14 00:49:26;;;;;;;72.85;28.92;;;11.60;99.90;;;;;;5052083;28;20119;-62
2022/10/14 00:52:06;;;;;;;75.40;29.25;;;11.60;99.90;;;;;;5046931;28;20076;-62
2022/10/14 00:54:35;;;;;;;94.82;30.67;;;11.60;99.90;;;;;;5058765;28;20052;-62
2022/10/14 00:57:02;;;;;;;76.00;29.33;;;11.60;99.90;;;;;;5044822;28;20813;-63
2022/10/14 00:59:27;;;;;;;72.25;26.98;;;11.50;99.90;;;;;;5059980;28;20476;-62
2022/10/14 01:01:53;;;;;;;67.07;27.85;;;11.60;99.90;;;;;;5054988;28;20036;-62
2022/10/14 01:04:19;;;;;;;77.75;28.58;;;11.50;99.90;;;;;;5052083;28;20061;-62
2022/10/14 01:07:06;;;;;;;71.07;26.17;;;11.50;99.90;;;;;;5046982;28;20040;-63
2022/10/14 01:09:40;;;;;;;60.83;24.75;;;11.50;99.90;;;;;;5046726;28;20040;-63
2022/10/14 01:12:30;;;;;;;66.32;26.52;;;11.50;99.90;;;;;;5055349;28;20059;-62
2022/10/14 01:15:19;;;;;;;67.70;26.20;;;11.50;99.90;;;;;;5055297;28;20033;-64
2022/10/14 01:18:19;;;;;;;68.40;26.17;;;11.50;99.90;;;;;;5055312;28;20065;-62
2022/10/14 01:21:15;;;;;;;72.25;25.58;;;11.40;99.90;;;;;;5057496;28;20055;-63
2022/10/14 01:23:47;;;;;;;60.42;24.58;;;11.40;99.90;;;;;;5062363;28;20059;-63
2022/10/14 01:26:12;;;;;;;71.85;25.60;;;11.40;99.90;;;;;;5053917;28;20051;-62
2022/10/14 01:29:19;;;;;;;162.40;33.45;;;11.40;99.90;;;;;;5060070;28;20040;-63
2022/10/14 01:31:51;;;;;;;63.20;24.60;;;11.40;99.90;;;;;;5026692;28;20153;-63
2022/10/14 01:34:26;;;;;;;62.40;23.00;;;11.40;99.90;;;;;;5050632;28;20063;-63
2022/10/14 01:37:00;;;;;;;63.15;22.30;;;11.40;99.90;;;;;;5055289;28;20136;-62
2022/10/14 01:39:34;;;;;;;66.82;22.27;;;11.30;99.90;;;;;;5048044;28;20151;-63
2022/10/14 01:42:06;;;;;;;64.72;22.27;;;11.30;99.90;;;;;;5058006;28;20044;-62
2022/10/14 01:44:36;;;;;;;70.72;22.52;;;11.30;99.90;;;;;;5030254;28;20063;-62
2022/10/14 01:47:04;;;;;;;48.83;21.30;;;11.30;99.90;;;;;;5055095;28;20068;-62
2022/10/14 01:49:41;;;;;;;57.15;20.95;;;11.30;99.90;;;;;;5048750;28;20388;-62
2022/10/14 01:52:15;;;;;;;66.85;21.85;;;11.30;99.90;;;;;;5056685;28;20877;-63
2022/10/14 01:54:44;;;;;;;56.20;21.45;;;11.30;99.90;;;;;;5044979;28;20063;-62
2022/10/14 01:57:19;;;;;;;58.53;19.65;;;11.20;99.90;;;;;;5053464;28;20091;-62
2022/10/14 01:59:45;;;;;;;80.45;20.65;;;11.20;99.90;;;;;;5052564;28;20036;-62
2022/10/14 02:02:12;;;;;;;71.22;18.88;;;11.20;99.90;;;;;;5052366;28;20041;-63
2022/10/14 02:04:38;;;;;;;55.58;17.50;;;11.20;99.90;;;;;;5053798;28;20056;-62
2022/10/14 02:07:15;;;;;;;64.93;17.23;;;11.20;99.90;;;;;;5052879;28;20053;-62
2022/10/14 02:09:46;;;;;;;83.80;19.60;;;11.20;99.90;;;;;;5055766;28;20513;-63
2022/10/14 02:12:36;;;;;;;41.33;17.02;;;11.10;99.90;;;;;;5060824;28;20064;-62
2022/10/14 02:15:13;;;;;;;59.17;16.90;;;11.10;99.90;;;;;;5052222;28;20120;-62
2022/10/14 02:17:54;;;;;;;73.05;18.17;;;11.10;99.90;;;;;;5066628;28;20136;-63
2022/10/14 02:20:28;;;;;;;41.10;16.00;;;11.10;99.90;;;;;;5053513;28;20460;-62
2022/10/14 02:22:59;;;;;;;32.75;16.05;;;11.10;99.90;;;;;;5057625;28;20040;-63
2022/10/14 02:25:30;;;;;;;72.80;18.10;;;11.10;99.90;;;;;;5066585;28;20052;-62
2022/10/14 02:27:59;;;;;;;86.28;19.77;;;11.00;99.90;;;;;;5057923;28;20492;-63
2022/10/14 02:30:26;;;;;;;90.78;17.02;;;11.10;99.90;;;;;;5062884;28;20091;-63
2022/10/14 02:32:52;;;;;;;39.25;14.80;;;11.00;99.90;;;;;;5062545;28;20048;-62
2022/10/14 02:35:20;;;;;;;73.38;16.55;;;11.00;99.90;;;;;;5054021;28;20057;-62
2022/10/14 02:37:48;;;;;;;52.97;15.60;;;11.00;99.90;;;;;;5051523;28;20085;-63
2022/10/14 02:40:17;;;;;;;50.15;14.77;;;11.00;99.90;;;;;;5053183;28;20127;-63
2022/10/14 02:42:43;;;;;;;43.13;13.30;;;11.00;99.90;;;;;;5053093;28;20049;-62
2022/10/14 02:45:10;;;;;;;41.55;13.10;;;11.00;99.90;;;;;;5057604;28;20060;-62
2022/10/14 02:47:36;;;;;;;37.75;12.70;;;11.00;99.90;;;;;;5058960;28;20040;-62
2022/10/14 02:50:03;;;;;;;43.42;13.10;;;11.00;99.90;;;;;;5058863;28;20037;-63
2022/10/14 02:52:28;;;;;;;49.97;12.85;;;11.00;99.90;;;;;;5053384;28;20365;-63
2022/10/14 02:54:54;;;;;;;76.85;14.57;;;11.00;99.90;;;;;;5062799;28;20053;-63
2022/10/14 02:57:19;;;;;;;33.80;12.77;;;11.00;99.90;;;;;;5034227;28;20052;-62
2022/10/14 02:59:45;;;;;;;103.47;17.27;;;10.90;99.90;;;;;;5049051;28;20048;-62
2022/10/14 03:02:11;;;;;;;25.50;12.25;;;10.90;99.90;;;;;;5051064;28;20361;-62
2022/10/14 03:04:37;;;;;;;81.80;15.70;;;10.90;99.90;;;;;;5068656;28;20048;-62
2022/10/14 03:07:03;;;;;;;31.40;11.98;;;10.90;99.90;;;;;;5055350;28;20040;-62
2022/10/14 03:09:29;;;;;;;86.95;14.15;;;10.90;99.90;;;;;;5059731;28;20060;-62
2022/10/14 03:11:54;;;;;;;42.20;13.35;;;10.90;99.90;;;;;;5049545;28;20799;-62
2022/10/14 03:14:20;;;;;;;50.17;13.13;;;10.90;99.90;;;;;;5063406;28;20036;-63
2022/10/14 03:16:45;;;;;;;44.15;12.52;;;10.90;99.90;;;;;;5058183;28;20041;-62
2022/10/14 03:19:11;;;;;;;67.53;14.98;;;10.90;99.90;;;;;;5050622;28;20051;-63
2022/10/14 03:21:36;;;;;;;51.72;13.95;;;10.90;99.90;;;;;;5051872;28;20917;-63
2022/10/14 03:24:02;;;;;;;42.88;14.00;;;10.90;99.90;;;;;;5054917;28;20345;-62
2022/10/14 03:26:28;;;;;;;35.78;13.57;;;10.90;99.90;;;;;;5055086;28;20441;-63
2022/10/14 03:28:53;;;;;;;51.10;13.88;;;10.90;99.90;;;;;;5048654;28;20040;-63
2022/10/14 03:31:19;;;;;;;37.75;13.10;;;11.00;99.90;;;;;;5050856;28;20374;-62
2022/10/14 03:33:44;;;;;;;43.83;14.88;;;11.00;99.90;;;;;;5052136;28;20029;-62
2022/10/14 03:36:11;;;;;;;59.20;15.63;;;11.00;99.90;;;;;;5053463;28;20047;-62
2022/10/14 03:38:36;;;;;;;34.80;15.38;;;10.90;99.90;;;;;;5061934;28;20463;-63
2022/10/14 03:41:02;;;;;;;58.63;14.52;;;10.90;99.90;;;;;;5049710;28;20124;-63
2022/10/14 03:43:28;;;;;;;55.50;14.65;;;10.90;99.90;;;;;;5048415;28;20041;-63
2022/10/14 03:45:54;;;;;;;54.90;13.52;;;10.80;99.90;;;;;;5059570;28;20102;-62
2022/10/14 03:48:19;;;;;;;58.03;13.63;;;10.70;99.90;;;;;;5048935;28;20049;-62
2022/10/14 03:50:48;;;;;;;82.15;13.02;;;10.70;99.90;;;;;;5050897;28;20040;-62
2022/10/14 03:53:14;;;;;;;33.95;11.60;;;10.60;99.90;;;;;;5057998;28;20062;-62
2022/10/14 03:55:40;;;;;;;53.78;12.35;;;10.60;99.90;;;;;;5060021;28;20431;-62
2022/10/14 03:58:06;;;;;;;54.42;12.32;;;10.50;99.90;;;;;;5048513;28;20432;-63
2022/10/14 04:00:32;;;;;;;34.63;11.43;;;10.60;99.90;;;;;;5063278;28;20044;-62
2022/10/14 04:02:57;;;;;;;23.40;11.15;;;10.50;99.90;;;;;;5048095;28;20076;-62
2022/10/14 04:05:23;;;;;;;37.10;11.35;;;10.50;99.90;;;;;;5058983;28;20152;-62
2022/10/14 04:07:49;;;;;;;25.73;10.35;;;10.50;99.90;;;;;;5054271;28;20059;-62
2022/10/14 04:10:14;;;;;;;93.88;17.55;;;10.50;99.90;;;;;;5067030;28;20040;-63
2022/10/14 04:12:40;;;;;;;23.95;11.18;;;10.50;99.90;;;;;;5056408;28;20032;-63
2022/10/14 04:15:07;;;;;;;45.55;13.52;;;10.50;99.90;;;;;;5051404;28;20337;-62
2022/10/14 04:17:32;;;;;;;30.65;11.38;;;10.50;99.90;;;;;;5049979;28;20068;-63
2022/10/14 04:19:58;;;;;;;29.60;12.27;;;10.50;99.90;;;;;;5050251;28;20072;-62
2022/10/14 04:22:23;;;;;;;40.13;13.30;;;10.50;99.90;;;;;;5059094;28;20049;-62
2022/10/14 04:24:49;;;;;;;93.95;18.30;;;10.40;99.90;;;;;;5051725;28;20128;-63
2022/10/14 04:27:16;;;;;;;50.80;14.70;;;10.50;99.90;;;;;;5049397;28;20033;-63
2022/10/14 04:29:41;;;;;;;34.35;13.48;;;10.50;99.90;;;;;;5062826;28;20408;-62
2022/10/14 04:32:07;;;;;;;43.45;13.85;;;10.50;99.90;;;;;;5064660;28;20028;-62
2022/10/14 04:34:33;;;;;;;61.67;15.55;;;10.50;99.90;;;;;;5055411;28;20033;-63
2022/10/14 04:36:58;;;;;;;46.75;15.35;;;10.50;99.90;;;;;;5061383;28;20081;-63
2022/10/14 04:39:24;;;;;;;47.78;14.60;;;10.50;99.90;;;;;;5061512;28;20089;-62
2022/10/14 04:41:50;;;;;;;40.30;14.57;;;10.60;99.90;;;;;;5046007;28;20041;-62
2022/10/14 04:44:15;;;;;;;65.25;17.27;;;10.60;99.90;;;;;;5064861;28;20029;-62
2022/10/14 04:46:41;;;;;;;63.55;16.75;;;10.60;99.90;;;;;;5063115;28;20040;-62
2022/10/14 04:49:08;;;;;;;71.40;17.80;;;10.60;99.90;;;;;;5062682;28;20033;-62
2022/10/14 04:51:33;;;;;;;65.00;18.40;;;10.60;99.90;;;;;;5051350;28;20072;-64
2022/10/14 04:53:59;;;;;;;66.15;18.45;;;10.60;99.90;;;;;;5052005;28;20130;-62
2022/10/14 04:56:24;;;;;;;56.17;17.33;;;10.70;99.90;;;;;;5054185;28;20036;-63
2022/10/14 04:58:50;;;;;;;67.38;18.10;;;10.60;99.90;;;;;;5056427;28;20113;-62
2022/10/14 05:01:17;;;;;;;65.50;17.95;;;10.70;99.90;;;;;;5053020;28;20065;-63
2022/10/14 05:03:43;;;;;;;73.50;18.42;;;10.70;99.90;;;;;;5059416;28;20060;-63
2022/10/14 05:06:09;;;;;;;66.63;16.60;;;10.70;99.90;;;;;;5051767;28;20048;-62
2022/10/14 05:08:35;;;;;;;62.88;16.85;;;10.70;99.90;;;;;;5048553;28;20749;-63
2022/10/14 05:11:01;;;;;;;71.05;18.40;;;10.70;99.90;;;;;;5051860;28;20040;-62
2022/10/14 05:13:27;;;;;;;77.07;19.80;;;10.70;99.90;;;;;;5048737;28;20118;-63
2022/10/14 05:15:53;;;;;;;76.72;18.80;;;10.70;99.90;;;;;;5046997;28;20041;-62
2022/10/14 05:18:18;;;;;;;88.47;20.33;;;10.70;99.90;;;;;;5045569;28;20456;-62
2022/10/14 05:20:44;;;;;;;79.57;20.23;;;10.70;99.90;;;;;;5056533;28;20063;-62
2022/10/14 05:23:09;;;;;;;115.05;23.48;;;10.70;99.90;;;;;;5063816;28;20437;-63
2022/10/14 05:25:35;;;;;;;97.93;23.25;;;10.70;99.90;;;;;;5061210;28;20405;-63
2022/10/14 05:28:01;;;;;;;85.20;21.65;;;10.70;99.90;;;;;;5044657;28;20040;-62
2022/10/14 05:30:26;;;;;;;102.15;25.05;;;10.60;99.90;;;;;;5049203;28;20124;-62
2022/10/14 05:32:52;;;;;;;110.90;25.38;;;10.70;99.90;;;;;;5048349;28;20099;-62
2022/10/14 05:35:17;;;;;;;87.47;22.45;;;10.70;99.90;;;;;;5065387;28;20029;-62
2022/10/14 05:37:43;;;;;;;99.45;22.88;;;10.70;99.90;;;;;;5048895;28;20071;-63
2022/10/14 05:40:09;;;;;;;94.80;22.60;;;10.70;99.90;;;;;;5059295;28;20113;-62
2022/10/14 05:42:34;;;;;;;95.25;22.52;;;10.60;99.90;;;;;;5054346;28;20032;-62
2022/10/14 05:45:00;;;;;;;84.18;20.58;;;10.70;99.90;;;;;;5067959;28;20058;-63
2022/10/14 05:47:25;;;;;;;85.90;19.77;;;10.70;99.90;;;;;;5048664;28;20461;-62
2022/10/14 05:49:51;;;;;;;70.05;19.23;;;10.70;99.90;;;;;;5059667;28;20127;-63
2022/10/14 05:52:17;;;;;;;76.97;20.08;;;10.70;99.90;;;;;;5052255;28;20041;-63
2022/10/14 05:54:42;;;;;;;77.68;20.55;;;10.70;99.90;;;;;;5052559;28;20083;-62
2022/10/14 05:57:08;;;;;;;84.40;21.42;;;10.60;99.90;;;;;;5057144;28;20044;-62
2022/10/14 05:59:34;;;;;;;69.18;21.23;;;10.60;99.90;;;;;;5052870;28;20040;-62
2022/10/14 06:02:00;;;;;;;61.55;20.45;;;10.60;99.90;;;;;;5068073;28;20044;-63
2022/10/14 06:04:26;;;;;;;74.72;21.13;;;10.60;99.90;;;;;;5050549;28;20057;-62
2022/10/14 06:06:51;;;;;;;72.35;21.42;;;10.60;99.90;;;;;;5047770;28;20051;-62
2022/10/14 06:09:17;;;;;;;67.78;20.70;;;10.60;99.90;;;;;;5062643;28;20090;-62
2022/10/14 06:11:43;;;;;;;68.18;21.80;;;10.60;99.90;;;;;;5060222;28;20371;-63
2022/10/14 06:14:09;;;;;;;68.50;21.23;;;10.60;99.90;;;;;;5048413;28;20055;-63
2022/10/14 06:16:34;;;;;;;72.75;21.70;;;10.60;99.90;;;;;;5054519;28;20132;-63
2022/10/14 06:19:00;;;;;;;76.35;21.85;;;10.60;99.90;;;;;;5062697;28;20039;-62
2022/10/14 06:21:26;;;;;;;76.00;24.10;;;10.70;99.90;;;;;;5049226;28;20130;-62
2022/10/14 06:23:51;;;;;;;75.13;21.77;;;10.70;99.90;;;;;;5057060;28;20049;-63
2022/10/14 06:26:17;;;;;;;74.75;23.38;;;10.70;99.90;;;;;;5049017;28;20052;-62
2022/10/14 06:28:42;;;;;;;86.93;24.60;;;10.80;99.90;;;;;;5047931;28;20035;-63
2022/10/14 06:31:08;;;;;;;68.20;23.95;;;10.80;99.90;;;;;;5053951;28;20178;-63
2022/10/14 06:33:34;;;;;;;76.03;24.33;;;10.80;99.90;;;;;;5066651;28;20048;-63
2022/10/14 06:36:04;;;;;;;73.13;24.08;;;10.80;99.90;;;;;;5060019;28;20032;-63
2022/10/14 06:38:30;;;;;;;72.15;24.40;;;10.90;99.90;;;;;;5055533;28;20105;-62
2022/10/14 06:40:55;;;;;;;85.60;25.95;;;10.80;99.90;;;;;;5050903;28;20400;-63
2022/10/14 06:43:21;;;;;;;75.97;25.17;;;10.80;99.90;;;;;;5045571;28;20064;-62
2022/10/14 06:45:47;;;;;;;62.65;24.20;;;10.90;99.90;;;;;;5047798;28;20098;-63
2022/10/14 06:48:13;;;;;;;67.47;23.90;;;10.90;99.90;;;;;;5056099;28;20037;-62
2022/10/14 06:50:40;;;;;;;68.65;24.30;;;10.90;99.90;;;;;;5062843;28;20486;-63
2022/10/14 06:53:06;;;;;;;68.53;25.08;;;10.90;99.90;;;;;;5051629;28;20048;-63
2022/10/14 06:55:31;;;;;;;61.00;23.25;;;10.90;99.90;;;;;;5051481;28;20032;-62
2022/10/14 06:57:57;;;;;;;66.47;23.35;;;11.00;99.90;;;;;;5049201;28;20066;-62
2022/10/14 07:00:22;;;;;;;63.25;23.15;;;10.90;99.90;;;;;;5062351;28;20044;-62
2022/10/14 07:02:48;;;;;;;66.70;24.95;;;11.00;99.90;;;;;;5052014;28;20041;-63
2022/10/14 07:05:14;;;;;;;63.58;23.92;;;11.00;99.90;;;;;;5066707;28;20054;-63
2022/10/14 07:07:39;;;;;;;71.68;24.13;;;11.00;99.90;;;;;;5054308;28;20119;-62
2022/10/14 07:10:05;;;;;;;73.75;23.88;;;11.00;99.90;;;;;;5060579;28;20068;-63
2022/10/14 07:12:31;;;;;;;66.60;22.98;;;11.00;99.90;;;;;;5046833;28;20037;-62
2022/10/14 07:14:57;;;;;;;74.68;23.92;;;11.00;99.90;;;;;;5054351;28;20032;-63
2022/10/14 07:17:22;;;;;;;69.07;24.30;;;11.10;99.90;;;;;;5051692;28;20129;-62
2022/10/14 07:19:48;;;;;;;72.47;24.60;;;11.10;99.90;;;;;;5051084;28;20033;-63
2022/10/14 07:22:15;;;;;;;70.55;23.90;;;11.20;99.90;;;;;;5050518;28;20510;-63
2022/10/14 07:24:40;;;;;;;68.03;23.45;;;11.20;99.90;;;;;;5070485;28;20075;-62
2022/10/14 07:27:08;;;;;;;64.75;23.15;;;11.20;99.90;;;;;;5067561;28;20072;-63
2022/10/14 07:29:33;;;;;;;57.83;21.30;;;11.30;99.90;;;;;;5059590;28;20038;-62
2022/10/14 07:31:59;;;;;;;64.18;22.50;;;11.30;99.90;;;;;;5051342;28;20102;-63
2022/10/14 07:34:25;;;;;;;60.30;20.90;;;11.30;99.90;;;;;;5050414;28;20079;-63
2022/10/14 07:36:50;;;;;;;52.03;20.23;;;11.30;99.90;;;;;;5051830;28;20524;-62
2022/10/14 07:39:16;;;;;;;56.55;20.58;;;11.30;99.90;;;;;;5050776;28;20048;-62
2022/10/14 07:41:41;;;;;;;52.72;20.10;;;11.30;99.90;;;;;;5057284;28;20105;-63
2022/10/14 07:44:08;;;;;;;53.72;20.33;;;11.40;99.90;;;;;;5068636;28;20136;-63
2022/10/14 07:46:37;;;;;;;54.05;20.42;;;11.40;99.90;;;;;;5058953;28;20083;-63
2022/10/14 07:49:07;;;;;;;56.42;19.77;;;11.40;99.90;;;;;;5070798;28;20037;-63
2022/10/14 07:51:34;;;;;;;54.65;20.95;;;11.50;99.90;;;;;;5059594;28;20091;-63
2022/10/14 07:54:02;;;;;;;49.47;20.63;;;11.40;99.90;;;;;;5056054;28;20128;-62
2022/10/14 07:56:28;;;;;;;51.92;20.13;;;11.40;99.90;;;;;;5050813;28;20040;-63
2022/10/14 07:58:54;;;;;;;53.78;22.20;;;11.50;99.90;;;;;;5067472;28;20093;-62
2022/10/14 08:01:20;;;;;;;52.03;20.73;;;11.50;99.90;;;;;;5058243;28;20114;-63
2022/10/14 08:03:47;;;;;;;45.88;18.30;;;11.60;99.90;;;;;;5050505;28;20077;-63
2022/10/14 08:06:13;;;;;;;45.97;20.00;;;11.60;99.90;;;;;;5061091;28;20048;-62
2022/10/14 08:08:39;;;;;;;46.80;19.58;;;11.70;99.90;;;;;;5059663;28;20051;-62
2022/10/14 08:11:17;;;;;;;50.83;20.75;;;11.70;99.90;;;;;;5049806;28;20091;-63
2022/10/14 08:13:44;;;;;;;48.72;19.48;;;11.80;99.90;;;;;;5060595;28;20040;-62
2022/10/14 08:16:19;;;;;;;48.53;19.00;;;11.90;99.90;;;;;;5072002;28;20037;-63
2022/10/14 08:18:45;;;;;;;49.42;20.13;;;11.90;99.90;;;;;;5066899;28;20588;-62
2022/10/14 08:21:12;;;;;;;51.05;20.75;;;11.90;99.90;;;;;;5054838;28;20385;-62
2022/10/14 08:23:37;;;;;;;49.35;19.73;;;12.00;99.90;;;;;;5056628;28;20050;-62
2022/10/14 08:26:03;;;;;;;44.22;19.73;;;12.10;99.90;;;;;;5054661;28;20670;-63
2022/10/14 08:28:29;;;;;;;44.95;18.35;;;12.20;99.90;;;;;;5044900;28;20481;-63
2022/10/14 08:30:55;;;;;;;49.63;19.02;;;12.30;99.90;;;;;;5052576;28;20033;-63
2022/10/14 08:33:20;;;;;;;44.95;18.17;;;12.30;99.90;;;;;;5050581;28;20063;-62
2022/10/14 08:35:46;;;;;;;53.65;22.27;;;12.40;99.90;;;;;;5057308;28;20033;-62
2022/10/14 08:38:11;;;;;;;44.72;19.45;;;12.30;99.90;;;;;;5055551;28;20485;-63
2022/10/14 08:40:55;;;;;;;48.63;19.50;;;12.40;99.90;;;;;;5061181;28;20405;-62
2022/10/14 08:43:29;;;;;;;46.63;20.10;;;12.40;99.90;;;;;;5052214;28;20044;-63
2022/10/14 08:46:03;;;;;;;45.20;19.38;;;12.40;99.90;;;;;;5068830;28;20090;-63
2022/10/14 08:48:32;;;;;;;44.00;18.38;;;12.30;99.90;;;;;;5066506;28;20066;-61
2022/10/14 08:51:12;;;;;;;44.10;19.63;;;12.40;99.90;;;;;;5067128;28;20036;-62
2022/10/14 08:53:43;;;;;;;44.73;19.40;;;12.40;99.90;;;;;;5056225;28;20037;-62
2022/10/14 08:56:12;;;;;;;43.95;18.73;;;12.40;99.90;;;;;;5068273;28;20040;-62
2022/10/14 08:59:03;;;;;;;45.33;18.65;;;12.30;99.90;;;;;;5052535;28;20447;-62
2022/10/14 09:01:35;;;;;;;48.13;19.38;;;12.40;99.90;;;;;;5059791;28;20036;-62
2022/10/14 09:04:06;;;;;;;45.88;19.05;;;12.50;99.90;;;;;;5064875;28;20056;-63
2022/10/14 09:06:34;;;;;;;47.05;19.92;;;12.50;99.90;;;;;;5070624;28;20078;-62
2022/10/14 09:09:12;;;;;;;43.60;18.55;;;12.50;99.90;;;;;;5057480;28;20033;-62
2022/10/14 09:11:42;;;;;;;47.85;18.83;;;12.60;99.90;;;;;;5053472;28;20032;-63
2022/10/14 09:14:16;;;;;;;49.53;19.93;;;12.60;99.90;;;;;;5059557;28;20044;-62
2022/10/14 09:16:44;;;;;;;44.92;19.90;;;12.70;99.90;;;;;;5068556;28;20100;-63
2022/10/14 09:19:32;;;;;;;46.85;19.95;;;12.70;99.90;;;;;;5050544;28;20541;-62
2022/10/14 09:22:00;;;;;;;51.03;20.65;;;12.70;99.90;;;;;;5048981;28;20811;-62
2022/10/14 09:24:30;;;;;;;48.60;20.25;;;12.60;99.90;;;;;;5054320;28;20147;-63
2022/10/14 09:27:12;;;;;;;51.08;20.38;;;12.70;99.90;;;;;;5051074;28;20651;-62
2022/10/14 09:29:53;;;;;;;53.42;20.45;;;12.70;99.90;;;;;;5062560;28;20143;-63
2022/10/14 09:32:40;;;;;;;45.60;19.70;;;12.70;99.90;;;;;;5050686;28;20033;-63
2022/10/14 09:35:13;;;;;;;53.80;20.77;;;12.70;99.90;;;;;;5062905;28;20115;-62
2022/10/14 09:37:38;;;;;;;55.50;22.42;;;12.80;99.90;;;;;;5065094;28;20079;-62
2022/10/14 09:40:07;;;;;;;52.67;21.63;;;12.70;99.90;;;;;;5050402;28;20127;-62
2022/10/14 09:42:54;;;;;;;59.63;22.27;;;12.70;99.90;;;;;;5054170;28;20039;-62
2022/10/14 09:45:21;;;;;;;59.08;22.33;;;12.80;99.90;;;;;;5059755;28;20032;-63
2022/10/14 09:47:58;;;;;;;53.20;20.73;;;12.70;99.90;;;;;;5062119;28;20098;-63
2022/10/14 09:50:28;;;;;;;69.05;23.58;;;12.60;99.90;;;;;;5049871;28;20468;-62
2022/10/14 09:53:00;;;;;;;80.63;24.83;;;12.60;99.90;;;;;;5046422;28;20112;-63
2022/10/14 09:55:26;;;;;;;71.93;25.13;;;12.60;99.90;;;;;;5052610;28;20385;-63
2022/10/14 09:58:05;;;;;;;77.10;24.50;;;12.60;99.90;;;;;;5053066;28;20115;-63
2022/10/14 10:00:33;;;;;;;72.53;23.92;;;12.50;99.90;;;;;;5055403;28;20124;-62
2022/10/14 10:02:59;;;;;;;93.03;25.95;;;12.50;99.90;;;;;;5063479;28;20049;-61
2022/10/14 10:05:26;;;;;;;86.07;26.45;;;12.40;99.90;;;;;;5070205;28;20056;-62
2022/10/14 10:08:05;;;;;;;78.45;25.83;;;12.40;99.90;;;;;;5066439;28;20032;-62
2022/10/14 10:10:33;;;;;;;85.97;25.98;;;12.40;99.90;;;;;;5053458;28;20044;-61
2022/10/14 10:12:59;;;;;;;101.00;28.23;;;12.30;99.90;;;;;;5058939;28;20103;-61
2022/10/14 10:15:25;;;;;;;115.82;28.08;;;12.30;99.90;;;;;;5049237;28;20033;-62
2022/10/14 10:17:51;;;;;;;108.55;28.08;;;12.30;99.90;;;;;;5050220;28;20049;-61
2022/10/14 10:20:19;;;;;;;96.53;28.27;;;12.40;99.90;;;;;;5050596;28;20037;-62
2022/10/14 10:22:45;;;;;;;118.25;31.25;;;12.40;99.90;;;;;;5055203;28;20068;-62
2022/10/14 10:25:13;;;;;;;108.68;30.15;;;12.40;99.90;;;;;;5059119;28;20488;-61
2022/10/14 10:27:44;;;;;;;106.35;28.30;;;12.40;99.90;;;;;;5047406;28;20495;-61
2022/10/14 10:30:16;;;;;;;104.82;28.60;;;12.30;99.90;;;;;;5058500;28;20044;-61
2022/10/14 10:33:22;;;;;;;106.93;28.05;;;12.30;99.90;;;;;;5069986;28;20042;-60
2022/10/14 10:36:07;;;;;;;104.53;28.13;;;12.40;99.90;;;;;;5043798;28;20421;-61
2022/10/14 10:38:44;;;;;;;108.30;27.20;;;12.40;99.90;;;;;;5051223;28;20403;-60
2022/10/14 10:41:27;;;;;;;119.70;30.80;;;12.40;99.90;;;;;;5051013;28;20491;-62
2022/10/14 10:44:24;;;;;;;107.53;28.27;;;12.40;99.90;;;;;;5048490;28;20044;-61
2022/10/14 10:47:14;;;;;;;101.43;27.35;;;12.40;99.90;;;;;;5050662;28;20045;-60
2022/10/14 10:49:58;;;;;;;102.80;29.20;;;12.50;99.90;;;;;;5061933;28;20058;-60
2022/10/14 10:52:47;;;;;;;106.80;28.58;;;12.40;99.90;;;;;;5070568;28;20441;-60
2022/10/14 10:55:31;;;;;;;97.18;28.33;;;12.50;99.90;;;;;;5070605;28;20055;-61
2022/10/14 10:58:14;;;;;;;99.53;29.10;;;12.50;99.90;;;;;;5052079;28;20051;-61
2022/10/14 11:00:53;;;;;;;130.98;32.42;;;12.50;99.90;;;;;;5051648;28;20091;-60
2022/10/14 11:03:27;;;;;;;110.00;30.42;;;12.50;99.90;;;;;;5051391;28;20053;-60
2022/10/14 11:12:26;;;;;;;106.07;29.35;;;12.60;99.90;;;;;;5049379;28;20044;-61
2022/10/14 11:15:07;;;;;;;98.25;27.05;;;12.50;99.90;;;;;;5051358;28;20408;-61
2022/10/14 11:17:32;;;;;;;106.05;27.10;;;12.50;99.90;;;;;;5057906;28;20044;-62
2022/10/14 11:20:21;;;;;;;95.45;25.40;;;12.50;99.90;;;;;;5050300;28;20087;-61
2022/10/14 11:22:49;;;;;;;94.38;26.83;;;12.60;99.90;;;;;;5054033;28;20250;-61
2022/10/14 11:25:21;;;;;;;97.72;26.08;;;12.60;99.90;;;;;;5066558;28;20033;-61
2022/10/14 11:28:00;;;;;;;96.90;26.63;;;12.50;99.90;;;;;;5048977;28;20049;-62
2022/10/14 11:31:05;;;;;;;111.90;28.50;;;12.50;99.90;;;;;;5066613;28;20041;-61
2022/10/14 11:33:58;;;;;;;88.70;26.27;;;12.60;99.90;;;;;;5061771;28;20041;-62
2022/10/14 11:37:02;;;;;;;96.78;25.60;;;12.60;99.90;;;;;;5057915;28;20036;-61
2022/10/14 11:39:48;;;;;;;95.18;26.52;;;12.60;99.90;;;;;;5055102;28;20059;-62
2022/10/14 11:42:28;;;;;;;102.78;25.05;;;12.70;99.90;;;;;;5056805;28;20169;-62
2022/10/14 11:45:06;;;;;;;82.88;25.88;;;12.70;99.90;;;;;;5057042;28;20183;-61
2022/10/14 11:47:36;;;;;;;78.00;23.02;;;12.70;99.90;;;;;;5050467;28;20407;-62
2022/10/14 11:50:04;;;;;;;91.85;24.80;;;12.70;99.90;;;;;;5059193;28;20033;-61
2022/10/14 11:52:39;;;;;;;99.22;25.02;;;12.80;99.90;;;;;;5032983;28;20512;-62
2022/10/14 11:55:14;;;;;;;113.60;26.40;;;12.80;99.90;;;;;;5053120;28;20128;-62
2022/10/14 11:57:46;;;;;;;101.05;27.83;;;12.90;99.90;;;;;;5053364;28;20033;-63
2022/10/14 12:00:16;;;;;;;120.28;30.38;;;12.90;99.90;;;;;;5061415;28;20048;-63
2022/10/14 12:03:01;;;;;;;92.40;27.23;;;13.00;99.90;;;;;;5060217;28;20129;-61
2022/10/14 12:05:44;;;;;;;112.32;31.20;;;13.00;99.90;;;;;;5056406;28;20040;-63
2022/10/14 12:08:29;;;;;;;137.63;34.60;;;13.00;99.90;;;;;;5060278;28;20032;-63
2022/10/14 12:10:57;;;;;;;155.63;38.58;;;13.00;99.90;;;;;;5059777;28;20037;-61
2022/10/14 12:13:40;;;;;;;142.60;38.00;;;13.00;99.90;;;;;;5049826;28;20040;-63
2022/10/14 12:16:12;;;;;;;140.20;38.90;;;13.10;99.90;;;;;;5056530;28;20086;-62
2022/10/14 12:18:38;;;;;;;162.65;39.88;;;13.10;99.90;;;;;;5058328;28;20055;-62
2022/10/14 12:21:29;;;;;;;173.60;41.65;;;13.10;99.90;;;;;;5055288;28;20580;-63
2022/10/14 12:24:06;;;;;;;170.57;42.60;;;13.10;99.90;;;;;;5054206;28;20060;-62
2022/10/14 12:26:54;;;;;;;159.05;40.50;;;13.10;99.90;;;;;;5054870;28;20448;-62
2022/10/14 12:29:26;;;;;;;202.05;46.58;;;13.20;99.90;;;;;;5058251;28;20083;-62
2022/10/14 12:32:04;;;;;;;171.77;45.58;;;13.30;99.90;;;;;;5051380;28;20037;-62
2022/10/14 12:34:33;;;;;;;158.23;43.17;;;13.30;99.90;;;;;;5054272;28;20037;-62
2022/10/14 12:37:07;;;;;;;159.07;44.53;;;13.30;99.90;;;;;;5054821;28;20036;-61
2022/10/14 12:39:40;;;;;;;171.30;43.97;;;13.30;99.90;;;;;;5055081;28;20036;-62
2022/10/14 12:42:12;;;;;;;151.82;43.95;;;13.30;99.90;;;;;;5052239;28;20460;-61
2022/10/14 12:44:54;;;;;;;175.68;44.05;;;13.30;99.90;;;;;;5050777;28;20036;-62
2022/10/14 12:47:34;;;;;;;192.88;47.53;;;13.40;99.90;;;;;;5056420;28;20044;-63